Pagrindinis puslapis
METAR-TAF:

METAR-TAF

Oro uostai :

Carlsbad, Naujoji Meksika, Jungtinės Amerikos Valstijos

platuma: 32-20-15N, ilguma: 104-15-48W, Aukštis: 1004 m

Dabartinis oras

Ataskaita buvo paskelbta 29 minutes, ne 03:53 UTC
Vėjas 7 kt iš Vakarų/Šiaurės Vakarų
Temperatūra 11°C
Drėgmė 43%
Slėgis 1021 hPa
Matomumas: 16.1 km
Giedras dangus

METAR: KCNM 010353Z AUTO 30007KT 10SM CLR 11/M01 A3015 RMK AO2 SLP189 T01061011

Laikas: 21:22 (04:22 UTC)

Prognozė

Ataskaita buvo paskelbta 2 valandos ir 41 minutes, ne 01:41 UTC
Prognozė galioja nuo 01 metu 02 UTC su 01 metu 24 UTC
Vėjas 5 kt iš Vakarų
Matomumas: 10 km
Mažai debesys ne aukštis 20000 ft

TAF: KCNM 010141Z 0102/0124 28005KT P6SM FEW200

Orai ataskaitas ir orų prognozės (METAR, TAF).

turimą stotys yra geltonos ir raudonos taškus žemėlapyje.

Perkelti pele per norėdami pamatyti stoties vardą.

Tada spustelėkite, norėdami matyti oro stebėjimo ir prognozės.

Norėdami pakeisti žemėlapį: spustelėkite ant žalios mygtukų su juodo kryžiaus žemyn,; žalią mygtuką su brūkšneliu, jei norite nutolinti; arba žalių rodyklių gretimoms žemėlapius.


METAR-TAF: